createdAt,value
2018-02-11T00:00:51.168Z,0
2018-02-11T00:01:51.400Z,0
2018-02-11T00:02:51.429Z,0
2018-02-11T00:03:51.357Z,0
2018-02-11T00:04:51.062Z,0
2018-02-11T00:05:51.045Z,0
2018-02-11T00:06:50.759Z,0
2018-02-11T00:07:50.734Z,0
2018-02-11T00:08:50.981Z,0
2018-02-11T00:09:50.429Z,0
2018-02-11T00:10:50.660Z,0
2018-02-11T00:11:50.640Z,0
2018-02-11T00:12:50.932Z,0
2018-02-11T00:13:51.124Z,0
2018-02-11T00:14:51.102Z,0
2018-02-11T00:15:50.552Z,0
2018-02-11T00:16:51.101Z,0
2018-02-11T00:17:51.035Z,0
2018-02-11T00:18:51.012Z,0
2018-02-11T00:19:50.730Z,0
2018-02-11T00:20:50.964Z,0
2018-02-11T00:21:50.936Z,0
2018-02-11T00:22:50.961Z,0
2018-02-11T00:23:50.890Z,0
2018-02-11T00:24:50.341Z,0
2018-02-11T00:25:50.844Z,0
2018-02-11T00:26:50.556Z,0
2018-02-11T00:27:50.543Z,0
2018-02-11T00:28:50.243Z,0
2018-02-11T00:29:50.498Z,0
2018-02-11T00:30:50.995Z,0
2018-02-11T00:31:50.451Z,0
2018-02-11T00:32:50.478Z,0
2018-02-11T00:33:50.672Z,0
2018-02-11T00:34:50.642Z,0
2018-02-11T00:35:50.355Z,0
2018-02-11T00:36:50.334Z,0
2018-02-11T00:37:50.046Z,0
2018-02-11T00:38:50.287Z,0
2018-02-11T00:39:50.532Z,0
2018-02-11T00:40:50.238Z,0
2018-02-11T00:41:50.215Z,0
2018-02-11T00:42:49.922Z,0
2018-02-11T00:43:50.439Z,0
2018-02-11T00:44:50.151Z,0
2018-02-11T00:45:50.121Z,0
2018-02-11T00:46:50.094Z,0
2018-02-11T00:47:50.077Z,0
2018-02-11T00:48:50.578Z,0
2018-02-11T00:49:49.763Z,0
2018-02-11T00:50:50.003Z,0
2018-02-11T00:51:50.278Z,0
2018-02-11T00:52:50.483Z,0
2018-02-11T00:53:49.717Z,0
2018-02-11T00:54:50.187Z,0
2018-02-11T00:55:49.662Z,0
2018-02-11T00:56:49.867Z,0
2018-02-11T00:57:49.583Z,0
2018-02-11T00:58:49.562Z,0
2018-02-11T00:59:49.536Z,0
2018-02-11T01:00:50.041Z,0
2018-02-11T01:01:49.745Z,0
2018-02-11T01:02:49.991Z,0
2018-02-11T01:03:49.702Z,0
2018-02-11T01:04:49.678Z,0
2018-02-11T01:05:49.659Z,0
2018-02-11T01:06:49.905Z,0
2018-02-11T01:07:49.888Z,0
2018-02-11T01:08:49.331Z,0
2018-02-11T01:09:50.092Z,0
2018-02-11T01:10:49.548Z,0
2018-02-11T01:11:49.529Z,0
2018-02-11T01:12:49.972Z,0
2018-02-11T01:13:48.947Z,0
2018-02-11T01:14:49.449Z,0
2018-02-11T01:15:49.434Z,0
2018-02-11T01:16:49.672Z,0
2018-02-11T01:17:49.652Z,0
2018-02-11T01:18:49.631Z,0
2018-02-11T01:19:49.337Z,0
2018-02-11T01:20:49.844Z,0
2018-02-11T01:21:49.299Z,0
2018-02-11T01:22:49.007Z,0
2018-02-11T01:23:49.522Z,0
2018-02-11T01:24:49.620Z,0
2018-02-11T01:25:49.459Z,0
2018-02-11T01:26:49.453Z,0
2018-02-11T01:27:48.890Z,0
2018-02-11T01:28:49.397Z,0
2018-02-11T01:29:49.109Z,0
2018-02-11T01:30:49.092Z,0
2018-02-11T01:31:49.070Z,0
2018-02-11T01:32:49.036Z,0
2018-02-11T01:33:49.288Z,0
2018-02-11T01:34:48.989Z,0
2018-02-11T01:35:48.974Z,0
2018-02-11T01:36:48.953Z,0
2018-02-11T01:37:48.659Z,0
2018-02-11T01:38:48.376Z,0
2018-02-11T01:39:49.187Z,0
2018-02-11T01:40:49.376Z,0
2018-02-11T01:41:48.563Z,0
2018-02-11T01:42:48.805Z,0
2018-02-11T01:43:48.515Z,0
2018-02-11T01:44:49.016Z,0
2018-02-11T01:45:48.737Z,0
2018-02-11T01:46:48.706Z,0
2018-02-11T01:47:48.155Z,0
2018-02-11T01:48:48.935Z,0
2018-02-11T01:49:48.945Z,0
2018-02-11T01:50:48.622Z,0
2018-02-11T01:51:48.591Z,0
2018-02-11T01:52:48.572Z,0
2018-02-11T01:53:48.277Z,0
2018-02-11T01:54:48.521Z,0
2018-02-11T01:55:48.235Z,0
2018-02-11T01:56:48.472Z,0
2018-02-11T01:57:48.446Z,0
2018-02-11T01:58:48.157Z,0
2018-02-11T01:59:48.658Z,0
2018-02-11T02:00:48.368Z,0
2018-02-11T02:01:48.343Z,0
2018-02-11T02:02:48.852Z,0
2018-02-11T02:03:48.303Z,0
2018-02-11T02:04:48.021Z,0
2018-02-11T02:05:48.292Z,0
2018-02-11T02:06:48.753Z,0
2018-02-11T02:07:48.200Z,0
2018-02-11T02:08:47.912Z,0
2018-02-11T02:09:48.158Z,0
2018-02-11T02:10:48.400Z,0
2018-02-11T02:11:48.638Z,0
2018-02-11T02:12:47.560Z,0
2018-02-11T02:13:48.061Z,0
2018-02-11T02:14:48.316Z,0
2018-02-11T02:15:48.062Z,0
2018-02-11T02:16:48.521Z,0
2018-02-11T02:17:47.965Z,0
2018-02-11T02:18:47.677Z,0
2018-02-11T02:19:47.922Z,0
2018-02-11T02:20:47.368Z,0
2018-02-11T02:21:48.190Z,0
2018-02-11T02:22:47.838Z,0
2018-02-11T02:23:47.828Z,0
2018-02-11T02:24:48.320Z,0
2018-02-11T02:25:48.352Z,0
2018-02-11T02:26:47.495Z,0
2018-02-11T02:27:47.467Z,0
2018-02-11T02:28:47.709Z,0
2018-02-11T02:29:47.684Z,0
2018-02-11T02:30:48.202Z,0
2018-02-11T02:31:47.907Z,0
2018-02-11T02:32:47.889Z,0
2018-02-11T02:33:47.850Z,0
2018-02-11T02:34:47.828Z,0
2018-02-11T02:35:47.801Z,0
2018-02-11T02:36:47.526Z,0
2018-02-11T02:37:47.756Z,0
2018-02-11T02:38:47.727Z,0
2018-02-11T02:39:47.983Z,0
2018-02-11T02:40:47.742Z,0
2018-02-11T02:41:47.659Z,0
2018-02-11T02:42:47.641Z,0
2018-02-11T02:43:47.616Z,0
2018-02-11T02:44:47.320Z,0
2018-02-11T02:45:47.292Z,0
2018-02-11T02:46:47.016Z,0
2018-02-11T02:47:47.257Z,0
2018-02-11T02:48:47.490Z,0
2018-02-11T02:49:47.726Z,0
2018-02-11T02:50:46.915Z,0
2018-02-11T02:51:47.156Z,0
2018-02-11T02:52:47.151Z,0
2018-02-11T02:53:47.697Z,0
2018-02-11T02:54:47.352Z,0
2018-02-11T02:55:47.330Z,0
2018-02-11T02:56:47.093Z,0
2018-02-11T02:57:46.758Z,0
2018-02-11T02:58:46.987Z,0
2018-02-11T02:59:46.967Z,0
2018-02-11T03:00:46.946Z,0
2018-02-11T03:01:46.910Z,0
2018-02-11T03:02:47.152Z,0
2018-02-11T03:03:46.866Z,0
2018-02-11T03:04:47.106Z,0
2018-02-11T03:05:46.290Z,0
2018-02-11T03:06:47.069Z,0
2018-02-11T03:07:46.500Z,0
2018-02-11T03:08:46.751Z,0
2018-02-11T03:09:46.198Z,0
2018-02-11T03:10:46.695Z,0
2018-02-11T03:11:46.465Z,0
2018-02-11T03:12:46.851Z,0
2018-02-11T03:13:46.369Z,0
2018-02-11T03:14:46.604Z,0
2018-02-11T03:15:46.578Z,0
2018-02-11T03:16:46.566Z,0
2018-02-11T03:17:46.799Z,0
2018-02-11T03:18:46.511Z,0
2018-02-11T03:19:46.760Z,0
2018-02-11T03:20:46.194Z,0
2018-02-11T03:21:46.173Z,0
2018-02-11T03:22:46.431Z,0
2018-02-11T03:23:46.916Z,0
2018-02-11T03:24:45.846Z,0
2018-02-11T03:25:46.345Z,0
2018-02-11T03:26:46.058Z,0
2018-02-11T03:27:46.353Z,0
2018-02-11T03:28:46.548Z,0
2018-02-11T03:29:45.721Z,0
2018-02-11T03:30:45.964Z,0
2018-02-11T03:31:46.195Z,0
2018-02-11T03:32:46.442Z,0
2018-02-11T03:33:45.887Z,0
2018-02-11T03:34:46.653Z,0
2018-02-11T03:35:46.110Z,0
2018-02-11T03:36:45.820Z,0
2018-02-11T03:37:46.055Z,0
2018-02-11T03:38:46.038Z,0
2018-02-11T03:39:45.752Z,0
2018-02-11T03:40:46.248Z,0
2018-02-11T03:41:45.967Z,0
2018-02-11T03:42:45.952Z,0
2018-02-11T03:43:45.655Z,0
2018-02-11T03:44:45.642Z,0
2018-02-11T03:45:46.135Z,0
2018-02-11T03:46:45.581Z,0
2018-02-11T03:47:45.870Z,0
2018-02-11T03:48:45.803Z,0
2018-02-11T03:49:46.309Z,0
2018-02-11T03:50:46.016Z,0
2018-02-11T03:51:46.050Z,0
2018-02-11T03:52:45.440Z,0
2018-02-11T03:53:45.954Z,0
2018-02-11T03:54:45.660Z,0
2018-02-11T03:55:45.895Z,0
2018-02-11T03:56:46.137Z,0
2018-02-11T03:57:45.646Z,0
2018-02-11T03:58:45.568Z,0
2018-02-11T03:59:45.547Z,0
2018-02-11T04:00:45.257Z,0
2018-02-11T04:01:45.231Z,0
2018-02-11T04:02:45.475Z,0
2018-02-11T04:03:45.191Z,0
2018-02-11T04:04:45.440Z,0
2018-02-11T04:05:44.881Z,0
2018-02-11T04:06:45.638Z,0
2018-02-11T04:07:45.355Z,0
2018-02-11T04:08:45.334Z,0
2018-02-11T04:09:45.314Z,0
2018-02-11T04:10:45.031Z,0
2018-02-11T04:11:45.526Z,0
2018-02-11T04:12:45.502Z,0
2018-02-11T04:13:45.471Z,0
2018-02-11T04:14:45.771Z,0
2018-02-11T04:15:45.432Z,0
2018-02-11T04:16:44.880Z,0
2018-02-11T04:17:45.381Z,0
2018-02-11T04:18:45.361Z,0
2018-02-11T04:19:45.334Z,0
2018-02-11T04:20:45.323Z,0
2018-02-11T04:21:44.506Z,0
2018-02-11T04:22:45.269Z,0
2018-02-11T04:23:45.560Z,0
2018-02-11T04:24:45.229Z,0
2018-02-11T04:25:44.673Z,0
2018-02-11T04:26:44.915Z,0
2018-02-11T04:27:44.368Z,0
2018-02-11T04:28:45.126Z,0
2018-02-11T04:29:44.896Z,0
2018-02-11T04:30:44.827Z,0
2018-02-11T04:31:44.805Z,0
2018-02-11T04:32:44.515Z,0
2018-02-11T04:33:44.742Z,0
2018-02-11T04:34:44.982Z,0
2018-02-11T04:35:44.964Z,0
2018-02-11T04:36:45.206Z,0
2018-02-11T04:37:44.390Z,0
2018-02-11T04:38:44.414Z,0
2018-02-11T04:39:44.346Z,0
2018-02-11T04:40:44.848Z,0
2018-02-11T04:41:44.563Z,0
2018-02-11T04:42:44.804Z,0
2018-02-11T04:43:44.245Z,0
2018-02-11T04:44:44.218Z,0
2018-02-11T04:45:44.987Z,0
2018-02-11T04:46:44.699Z,0
2018-02-11T04:47:44.684Z,0
2018-02-11T04:48:44.766Z,0
2018-02-11T04:49:44.371Z,0
2018-02-11T04:50:44.616Z,0
2018-02-11T04:51:44.051Z,0
2018-02-11T04:52:44.303Z,0
2018-02-11T04:53:44.552Z,0
2018-02-11T04:54:43.993Z,0
2018-02-11T04:55:44.502Z,0
2018-02-11T04:56:44.738Z,0
2018-02-11T04:57:44.707Z,0
2018-02-11T04:58:43.894Z,0
2018-02-11T04:59:44.134Z,0
2018-02-11T05:00:44.636Z,0
2018-02-11T05:01:43.818Z,0
2018-02-11T05:02:44.065Z,0
2018-02-11T05:03:44.096Z,0
2018-02-11T05:04:43.751Z,0
2018-02-11T05:05:43.721Z,0
2018-02-11T05:06:44.240Z,0
2018-02-11T05:07:43.690Z,0
2018-02-11T05:08:43.926Z,0
2018-02-11T05:09:43.632Z,0
2018-02-11T05:10:44.395Z,0
2018-02-11T05:11:43.852Z,0
2018-02-11T05:12:43.765Z,0
2018-02-11T05:13:43.801Z,0
2018-02-11T05:14:43.776Z,0
2018-02-11T05:15:44.276Z,0
2018-02-11T05:16:43.734Z,0
2018-02-11T05:17:43.968Z,0
2018-02-11T05:18:43.731Z,0
2018-02-11T05:19:43.393Z,0
2018-02-11T05:20:43.909Z,0
2018-02-11T05:21:43.611Z,0
2018-02-11T05:22:43.848Z,0
2018-02-11T05:23:43.820Z,0
2018-02-11T05:24:43.012Z,0
2018-02-11T05:25:43.532Z,0
2018-02-11T05:26:42.961Z,0
2018-02-11T05:27:43.728Z,0
2018-02-11T05:28:43.759Z,0
2018-02-11T05:29:43.686Z,0
2018-02-11T05:30:43.917Z,0
2018-02-11T05:31:43.376Z,0
2018-02-11T05:32:43.341Z,0
2018-02-11T05:33:43.327Z,0
2018-02-11T05:34:43.303Z,0
2018-02-11T05:35:43.556Z,0
2018-02-11T05:36:43.246Z,0
2018-02-11T05:37:43.490Z,0
2018-02-11T05:38:43.198Z,0
2018-02-11T05:39:43.494Z,0
2018-02-11T05:40:42.630Z,0
2018-02-11T05:41:43.392Z,0
2018-02-11T05:42:43.109Z,0
2018-02-11T05:43:42.822Z,0
2018-02-11T05:44:43.323Z,0
2018-02-11T05:45:43.297Z,0
2018-02-11T05:46:42.490Z,0
2018-02-11T05:47:43.298Z,0
2018-02-11T05:48:42.704Z,0
2018-02-11T05:49:42.987Z,0
2018-02-11T05:50:42.918Z,0
2018-02-11T05:51:42.894Z,0
2018-02-11T05:52:42.606Z,0
2018-02-11T05:53:42.599Z,0
2018-02-11T05:54:42.905Z,0
2018-02-11T05:55:42.800Z,0
2018-02-11T05:56:43.318Z,0
2018-02-11T05:57:42.745Z,0
2018-02-11T05:58:42.817Z,0
2018-02-11T05:59:43.010Z,0
2018-02-11T06:00:42.717Z,0
2018-02-11T06:01:42.665Z,0
2018-02-11T06:02:42.371Z,0
2018-02-11T06:03:42.608Z,0
2018-02-11T06:04:42.583Z,0
2018-02-11T06:05:42.583Z,0
2018-02-11T06:06:43.064Z,0
2018-02-11T06:07:42.509Z,0
2018-02-11T06:08:42.503Z,0
2018-02-11T06:09:42.504Z,0
2018-02-11T06:10:42.696Z,0
2018-02-11T06:11:42.942Z,0
2018-02-11T06:12:42.123Z,0
2018-02-11T06:13:42.627Z,0
2018-02-11T06:14:42.081Z,0
2018-02-11T06:15:42.057Z,0
2018-02-11T06:16:42.326Z,0
2018-02-11T06:17:42.552Z,0
2018-02-11T06:18:41.986Z,0
2018-02-11T06:19:42.276Z,0
2018-02-11T06:20:42.258Z,0
2018-02-11T06:21:42.173Z,0
2018-02-11T06:22:41.897Z,0
2018-02-11T06:23:42.410Z,0
2018-02-11T06:24:42.102Z,0
2018-02-11T06:25:41.828Z,0
2018-02-11T06:26:42.323Z,0
2018-02-11T06:27:42.052Z,0
2018-02-11T06:28:42.285Z,0
2018-02-11T06:29:41.991Z,0
2018-02-11T06:30:41.753Z,0
2018-02-11T06:31:41.988Z,0
2018-02-11T06:32:41.915Z,0
2018-02-11T06:33:41.965Z,0
2018-02-11T06:34:41.869Z,0
2018-02-11T06:35:42.105Z,0
2018-02-11T06:36:41.830Z,0
2018-02-11T06:37:41.542Z,0
2018-02-11T06:38:41.767Z,0
2018-02-11T06:39:41.745Z,0
2018-02-11T06:40:41.990Z,0
2018-02-11T06:41:41.176Z,0
2018-02-11T06:42:41.688Z,0
2018-02-11T06:43:41.657Z,0
2018-02-11T06:44:41.105Z,0
2018-02-11T06:45:41.347Z,0
2018-02-11T06:46:41.443Z,0
2018-02-11T06:47:41.828Z,0
2018-02-11T06:48:41.795Z,0
2018-02-11T06:49:40.986Z,0
2018-02-11T06:50:41.540Z,0
2018-02-11T06:51:41.462Z,0
2018-02-11T06:52:41.442Z,0
2018-02-11T06:53:41.162Z,0
2018-02-11T06:54:41.408Z,0
2018-02-11T06:55:41.538Z,0
2018-02-11T06:56:41.390Z,0
2018-02-11T06:57:41.082Z,0
2018-02-11T06:58:41.036Z,0
2018-02-11T06:59:41.285Z,0
2018-02-11T07:00:41.347Z,0
2018-02-11T07:01:41.229Z,0
2018-02-11T07:02:41.216Z,0
2018-02-11T07:03:41.206Z,0
2018-02-11T07:04:40.893Z,0
2018-02-11T07:05:41.425Z,0
2018-02-11T07:06:40.596Z,0
2018-02-11T07:07:41.359Z,0
2018-02-11T07:08:41.067Z,0
2018-02-11T07:09:41.564Z,5
2018-02-11T07:10:41.609Z,5
2018-02-11T07:11:41.001Z,5
2018-02-11T07:12:41.973Z,5
2018-02-11T07:13:40.701Z,0
2018-02-11T07:14:41.472Z,0
2018-02-11T07:15:40.645Z,0
2018-02-11T07:16:40.868Z,0
2018-02-11T07:17:40.322Z,0
2018-02-11T07:18:41.363Z,0
2018-02-11T07:19:41.076Z,5
2018-02-11T07:20:41.046Z,5
2018-02-11T07:21:41.072Z,5
2018-02-11T07:22:40.738Z,5
2018-02-11T07:23:40.442Z,0
2018-02-11T07:24:40.706Z,0
2018-02-11T07:25:40.661Z,5
2018-02-11T07:26:40.913Z,5
2018-02-11T07:27:40.879Z,5
2018-02-11T07:28:40.591Z,5
2018-02-11T07:29:40.827Z,5
2018-02-11T07:30:40.545Z,5
2018-02-11T07:31:40.567Z,5
2018-02-11T07:32:40.518Z,10
2018-02-11T07:33:40.224Z,10
2018-02-11T07:34:40.751Z,10
2018-02-11T07:35:40.160Z,10
2018-02-11T07:36:40.403Z,10
2018-02-11T07:37:40.916Z,15
2018-02-11T07:38:40.368Z,15
2018-02-11T07:39:40.072Z,15
2018-02-11T07:40:40.364Z,15
2018-02-11T07:41:40.912Z,15
2018-02-11T07:42:40.004Z,15
2018-02-11T07:43:40.551Z,20
2018-02-11T07:44:40.525Z,20
2018-02-11T07:45:40.537Z,15
2018-02-11T07:46:40.694Z,15
2018-02-11T07:47:40.143Z,10
2018-02-11T07:48:40.414Z,10
2018-02-11T07:49:40.359Z,5
2018-02-11T07:50:40.078Z,10
2018-02-11T07:51:39.837Z,10
2018-02-11T07:52:39.762Z,15
2018-02-11T07:53:40.006Z,15
2018-02-11T07:54:39.728Z,15
2018-02-11T07:55:40.225Z,15
2018-02-11T07:56:40.471Z,15
2018-02-11T07:57:40.176Z,15
2018-02-11T07:58:39.904Z,20
2018-02-11T07:59:39.335Z,15
2018-02-11T08:00:40.108Z,20
2018-02-11T08:01:39.879Z,20
2018-02-11T08:02:40.061Z,20
2018-02-11T08:03:39.781Z,15
2018-02-11T08:04:40.051Z,20
2018-02-11T08:05:39.466Z,20
2018-02-11T08:06:39.699Z,20
2018-02-11T08:07:40.205Z,20
2018-02-11T08:08:39.654Z,20
2018-02-11T08:09:39.900Z,20
2018-02-11T08:10:39.351Z,15
2018-02-11T08:11:39.628Z,15
2018-02-11T08:12:39.565Z,20
2018-02-11T08:13:39.545Z,20
2018-02-11T08:14:39.509Z,25
2018-02-11T08:15:39.227Z,25
2018-02-11T08:16:38.936Z,25
2018-02-11T08:17:39.703Z,25
2018-02-11T08:18:39.950Z,25
2018-02-11T08:19:39.153Z,25
2018-02-11T08:20:39.107Z,25
2018-02-11T08:21:39.352Z,25
2018-02-11T08:22:39.373Z,25
2018-02-11T08:23:39.838Z,30
2018-02-11T08:24:39.057Z,30
2018-02-11T08:25:39.324Z,35
2018-02-11T08:26:39.491Z,30
2018-02-11T08:27:39.475Z,35
2018-02-11T08:28:39.183Z,30
2018-02-11T08:29:38.894Z,25
2018-02-11T08:30:39.400Z,20
2018-02-11T08:31:39.112Z,20
2018-02-11T08:32:39.136Z,25
2018-02-11T08:33:38.803Z,30
2018-02-11T08:34:39.570Z,35
2018-02-11T08:35:39.277Z,50
2018-02-11T08:36:39.000Z,50
2018-02-11T08:37:39.522Z,40
2018-02-11T08:38:38.692Z,35
2018-02-11T08:39:39.196Z,30
2018-02-11T08:40:39.432Z,40
2018-02-11T08:41:38.622Z,40
2018-02-11T08:42:38.646Z,35
2018-02-11T08:43:39.097Z,30
2018-02-11T08:44:38.547Z,30
2018-02-11T08:45:38.792Z,30
2018-02-11T08:46:38.774Z,35
2018-02-11T08:47:38.736Z,30
2018-02-11T08:48:38.979Z,30
2018-02-11T08:49:38.436Z,35
2018-02-11T08:50:38.932Z,30
2018-02-11T08:51:38.913Z,25
2018-02-11T08:52:38.684Z,30
2018-02-11T08:53:38.875Z,35
2018-02-11T08:54:38.587Z,35
2018-02-11T08:55:38.556Z,30
2018-02-11T08:56:38.800Z,30
2018-02-11T08:57:39.034Z,35
2018-02-11T08:58:38.483Z,35
2018-02-11T08:59:38.728Z,45
2018-02-11T09:00:38.441Z,30
2018-02-11T09:01:38.690Z,25
2018-02-11T09:02:38.977Z,20
2018-02-11T09:03:38.403Z,30
2018-02-11T09:04:38.356Z,40
2018-02-11T09:05:38.068Z,40
2018-02-11T09:06:38.560Z,55
2018-02-11T09:07:38.331Z,55
2018-02-11T09:08:37.996Z,55
2018-02-11T09:09:37.961Z,75
2018-02-11T09:10:38.206Z,65
2018-02-11T09:11:38.184Z,50
2018-02-11T09:12:37.690Z,55
2018-02-11T09:13:38.081Z,50
2018-02-11T09:14:38.431Z,40
2018-02-11T09:15:38.099Z,45
2018-02-11T09:16:38.655Z,45
2018-02-11T09:17:38.589Z,50
2018-02-11T09:18:38.302Z,60
2018-02-11T09:19:37.752Z,60
2018-02-11T09:20:38.246Z,60
2018-02-11T09:21:37.952Z,60
2018-02-11T09:22:37.670Z,60
2018-02-11T09:23:37.968Z,55
2018-02-11T09:24:37.624Z,85
2018-02-11T09:25:37.868Z,100
2018-02-11T09:26:37.581Z,85
2018-02-11T09:27:37.554Z,85
2018-02-11T09:28:38.055Z,85
2018-02-11T09:29:38.288Z,90
2018-02-11T09:30:37.750Z,120
2018-02-11T09:31:37.998Z,125
2018-02-11T09:32:37.972Z,125
2018-02-11T09:33:37.999Z,90
2018-02-11T09:34:37.674Z,95
2018-02-11T09:35:37.110Z,80
2018-02-11T09:36:37.875Z,60
2018-02-11T09:37:37.855Z,55
2018-02-11T09:38:37.310Z,70
2018-02-11T09:39:38.082Z,65
2018-02-11T09:40:37.263Z,60
2018-02-11T09:41:37.238Z,50
2018-02-11T09:42:37.500Z,70
2018-02-11T09:43:37.512Z,60
2018-02-11T09:44:37.964Z,50
2018-02-11T09:45:37.418Z,60
2018-02-11T09:46:37.651Z,65
2018-02-11T09:47:37.109Z,75
2018-02-11T09:48:37.628Z,80
2018-02-11T09:49:37.590Z,75
2018-02-11T09:50:37.313Z,65
2018-02-11T09:51:37.552Z,70
2018-02-11T09:52:37.522Z,50
2018-02-11T09:53:37.289Z,45
2018-02-11T09:54:37.216Z,60
2018-02-11T09:55:37.488Z,80
2018-02-11T09:56:37.191Z,45
2018-02-11T09:57:37.743Z,45
2018-02-11T09:58:37.178Z,50
2018-02-11T09:59:36.580Z,55
2018-02-11T10:00:37.080Z,45
2018-02-11T10:01:36.533Z,35
2018-02-11T10:02:37.037Z,45
2018-02-11T10:03:37.071Z,50
2018-02-11T10:04:37.285Z,80
2018-02-11T10:05:36.456Z,80
2018-02-11T10:06:37.227Z,85
2018-02-11T10:07:36.665Z,85
2018-02-11T10:08:36.646Z,100
2018-02-11T10:09:36.884Z,110
2018-02-11T10:10:36.602Z,115
2018-02-11T10:11:37.116Z,100
2018-02-11T10:12:36.553Z,75
2018-02-11T10:13:37.059Z,45
2018-02-11T10:14:36.769Z,55
2018-02-11T10:15:36.753Z,75
2018-02-11T10:16:36.996Z,80
2018-02-11T10:17:36.969Z,115
2018-02-11T10:18:36.960Z,175
2018-02-11T10:19:36.939Z,125
2018-02-11T10:20:36.414Z,220
2018-02-11T10:21:36.893Z,305
2018-02-11T10:22:36.597Z,275
2018-02-11T10:23:36.835Z,210
2018-02-11T10:24:36.036Z,235
2018-02-11T10:25:36.797Z,260
2018-02-11T10:26:36.517Z,220
2018-02-11T10:27:36.510Z,200
2018-02-11T10:28:36.738Z,210
2018-02-11T10:29:36.721Z,265
2018-02-11T10:30:36.429Z,270
2018-02-11T10:31:36.672Z,305
2018-02-11T10:32:36.126Z,315
2018-02-11T10:33:36.367Z,510
2018-02-11T10:34:36.352Z,720
2018-02-11T10:35:35.805Z,725
2018-02-11T10:36:36.307Z,335
2018-02-11T10:37:36.828Z,280
2018-02-11T10:38:36.008Z,480
2018-02-11T10:39:35.768Z,690
2018-02-11T10:40:35.972Z,410
2018-02-11T10:41:35.954Z,280
2018-02-11T10:42:36.461Z,265
2018-02-11T10:43:36.438Z,630
2018-02-11T10:44:36.676Z,640
2018-02-11T10:45:36.685Z,390
2018-02-11T10:46:36.378Z,280
2018-02-11T10:47:36.369Z,530
2018-02-11T10:48:36.085Z,490
2018-02-11T10:49:36.111Z,340
2018-02-11T10:50:36.309Z,340
2018-02-11T10:51:36.295Z,340
2018-02-11T10:52:35.776Z,295
2018-02-11T10:53:36.262Z,310
2018-02-11T10:54:36.068Z,350
2018-02-11T10:55:35.966Z,300
2018-02-11T10:56:35.939Z,245
2018-02-11T10:57:36.191Z,260
2018-02-11T10:58:35.915Z,225
2018-02-11T10:59:35.940Z,460
2018-02-11T11:00:35.887Z,305
2018-02-11T11:01:36.174Z,540
2018-02-11T11:02:35.833Z,525
2018-02-11T11:03:35.817Z,330
2018-02-11T11:04:35.811Z,450
2018-02-11T11:05:35.536Z,350
2018-02-11T11:06:35.772Z,360
2018-02-11T11:07:35.793Z,505
2018-02-11T11:08:35.744Z,595
2018-02-11T11:09:35.983Z,305
2018-02-11T11:10:35.441Z,205
2018-02-11T11:11:36.231Z,220
2018-02-11T11:12:35.945Z,185
2018-02-11T11:13:35.871Z,240
2018-02-11T11:14:35.631Z,315
2018-02-11T11:15:36.160Z,260
2018-02-11T11:16:36.163Z,230
2018-02-11T11:17:35.590Z,175
2018-02-11T11:18:35.304Z,185
2018-02-11T11:19:35.555Z,190
2018-02-11T11:20:36.125Z,150
2018-02-11T11:21:35.525Z,125
2018-02-11T11:22:35.510Z,100
2018-02-11T11:23:34.959Z,85
2018-02-11T11:24:36.000Z,95
2018-02-11T11:25:34.921Z,80
2018-02-11T11:26:35.694Z,75
2018-02-11T11:27:35.409Z,75
2018-02-11T11:28:35.153Z,75
2018-02-11T11:29:35.658Z,70
2018-02-11T11:30:34.878Z,65
2018-02-11T11:31:35.700Z,80
2018-02-11T11:32:35.055Z,105
2018-02-11T11:33:35.299Z,110
2018-02-11T11:34:35.283Z,125
2018-02-11T11:35:35.262Z,145
2018-02-11T11:36:35.503Z,160
2018-02-11T11:37:34.959Z,145
2018-02-11T11:38:34.954Z,160
2018-02-11T11:39:35.187Z,160
2018-02-11T11:40:35.222Z,205
2018-02-11T11:41:35.146Z,170
2018-02-11T11:42:34.867Z,165
2018-02-11T11:43:35.634Z,175
2018-02-11T11:44:35.876Z,200
2018-02-11T11:45:35.138Z,185
2018-02-11T11:46:35.335Z,150
2018-02-11T11:47:35.046Z,125
2018-02-11T11:48:35.039Z,140
2018-02-11T11:49:35.010Z,130
2018-02-11T11:50:35.028Z,125
2018-02-11T11:51:35.228Z,145
2018-02-11T11:52:34.962Z,155
2018-02-11T11:53:34.926Z,145
2018-02-11T11:54:34.932Z,120
2018-02-11T11:55:34.877Z,110
2018-02-11T11:56:34.652Z,110
2018-02-11T11:57:34.903Z,105
2018-02-11T11:58:34.847Z,105
2018-02-11T11:59:35.070Z,95
2018-02-11T12:00:35.116Z,100
2018-02-11T12:01:35.310Z,110
2018-02-11T12:02:35.028Z,105
2018-02-11T12:03:34.777Z,100
2018-02-11T12:04:34.725Z,110
2018-02-11T12:05:34.964Z,105
2018-02-11T12:06:34.685Z,115
2018-02-11T12:07:34.661Z,110
2018-02-11T12:08:34.637Z,105
2018-02-11T12:09:34.949Z,120
2018-02-11T12:10:34.852Z,150
2018-02-11T12:11:34.830Z,170
2018-02-11T12:12:34.837Z,190
2018-02-11T12:13:34.531Z,210
2018-02-11T12:14:34.531Z,235
2018-02-11T12:15:34.234Z,275
2018-02-11T12:16:34.472Z,315
2018-02-11T12:17:34.721Z,260
2018-02-11T12:18:34.429Z,220
2018-02-11T12:19:34.433Z,205
2018-02-11T12:20:34.947Z,195
2018-02-11T12:21:34.435Z,190
2018-02-11T12:22:34.380Z,195
2018-02-11T12:23:34.347Z,195
2018-02-11T12:24:34.805Z,195
2018-02-11T12:25:34.582Z,190
2018-02-11T12:26:34.349Z,180
2018-02-11T12:27:34.003Z,160
2018-02-11T12:28:33.990Z,150
2018-02-11T12:29:34.247Z,150
2018-02-11T12:30:34.230Z,155
2018-02-11T12:31:34.651Z,175
2018-02-11T12:32:33.937Z,215
2018-02-11T12:33:34.157Z,255
2018-02-11T12:34:34.701Z,315
2018-02-11T12:35:34.387Z,415
2018-02-11T12:36:34.563Z,585
2018-02-11T12:37:33.549Z,485
2018-02-11T12:38:33.824Z,545
2018-02-11T12:39:34.782Z,710
2018-02-11T12:40:33.744Z,660
2018-02-11T12:41:34.252Z,285
2018-02-11T12:42:34.018Z,280
2018-02-11T12:43:34.479Z,290
2018-02-11T12:44:33.944Z,325
2018-02-11T12:45:34.184Z,285
2018-02-11T12:46:34.177Z,250
2018-02-11T12:47:33.886Z,235
2018-02-11T12:48:33.862Z,225
2018-02-11T12:49:33.591Z,220
2018-02-11T12:50:34.095Z,220
2018-02-11T12:51:33.811Z,225
2018-02-11T12:52:33.842Z,230
2018-02-11T12:53:33.792Z,235
2018-02-11T12:54:33.769Z,220
2018-02-11T12:55:33.744Z,195
2018-02-11T12:56:33.461Z,190
2018-02-11T12:57:33.969Z,190
2018-02-11T12:58:33.695Z,195
2018-02-11T12:59:33.939Z,205
2018-02-11T13:00:33.913Z,215
2018-02-11T13:01:33.955Z,230
2018-02-11T13:02:33.657Z,225
2018-02-11T13:03:33.594Z,205
2018-02-11T13:04:33.315Z,185
2018-02-11T13:05:33.305Z,185
2018-02-11T13:06:33.822Z,185
2018-02-11T13:07:33.269Z,175
2018-02-11T13:08:33.776Z,175
2018-02-11T13:09:33.760Z,190
2018-02-11T13:10:33.741Z,225
2018-02-11T13:11:33.457Z,260
2018-02-11T13:12:33.707Z,235
2018-02-11T13:13:33.408Z,230
2018-02-11T13:14:33.144Z,235
2018-02-11T13:15:33.394Z,230
2018-02-11T13:16:33.630Z,230
2018-02-11T13:17:33.614Z,215
2018-02-11T13:18:33.589Z,205
2018-02-11T13:19:33.595Z,195
2018-02-11T13:20:33.293Z,170
2018-02-11T13:21:33.273Z,150
2018-02-11T13:22:32.730Z,125
2018-02-11T13:23:33.026Z,110
2018-02-11T13:24:33.492Z,100
2018-02-11T13:25:32.940Z,95
2018-02-11T13:26:33.440Z,85
2018-02-11T13:27:32.902Z,80
2018-02-11T13:28:33.463Z,95
2018-02-11T13:29:33.132Z,110
2018-02-11T13:30:32.960Z,120
2018-02-11T13:31:32.884Z,120
2018-02-11T13:32:33.327Z,110
2018-02-11T13:33:33.099Z,120
2018-02-11T13:34:33.764Z,120
2018-02-11T13:35:33.324Z,120
2018-02-11T13:36:32.994Z,110
2018-02-11T13:37:33.236Z,100
2018-02-11T13:38:32.957Z,90
2018-02-11T13:39:33.230Z,85
2018-02-11T13:40:32.924Z,80
2018-02-11T13:41:32.901Z,80
2018-02-11T13:42:33.136Z,85
2018-02-11T13:43:32.892Z,90
2018-02-11T13:44:32.581Z,95
2018-02-11T13:45:33.086Z,105
2018-02-11T13:46:33.331Z,120
2018-02-11T13:47:33.059Z,135
2018-02-11T13:48:32.796Z,150
2018-02-11T13:49:32.547Z,160
2018-02-11T13:50:33.024Z,165
2018-02-11T13:51:32.194Z,170
2018-02-11T13:52:32.911Z,180
2018-02-11T13:53:32.403Z,185
2018-02-11T13:54:32.537Z,185
2018-02-11T13:55:32.381Z,180
2018-02-11T13:56:32.627Z,175
2018-02-11T13:57:32.594Z,160
2018-02-11T13:58:32.905Z,150
2018-02-11T13:59:32.904Z,145
2018-02-11T14:00:32.287Z,140
2018-02-11T14:01:32.546Z,140
2018-02-11T14:02:33.040Z,140
2018-02-11T14:03:32.499Z,130
2018-02-11T14:04:32.741Z,120
2018-02-11T14:05:32.919Z,115
2018-02-11T14:06:32.959Z,110
2018-02-11T14:07:32.406Z,95
2018-02-11T14:08:32.926Z,85
2018-02-11T14:09:32.146Z,80
2018-02-11T14:10:32.352Z,80
2018-02-11T14:11:32.328Z,100
2018-02-11T14:12:32.833Z,110
2018-02-11T14:13:32.284Z,120
2018-02-11T14:14:31.801Z,125
2018-02-11T14:15:32.272Z,120
2018-02-11T14:16:31.979Z,120
2018-02-11T14:17:31.703Z,125
2018-02-11T14:18:32.953Z,125
2018-02-11T14:19:32.729Z,125
2018-02-11T14:20:32.168Z,120
2018-02-11T14:21:32.435Z,110
2018-02-11T14:22:31.603Z,110
2018-02-11T14:23:31.566Z,115